createdAt,value
2022-09-12T00:01:21.455Z,11.44
2022-09-12T00:03:51.304Z,11.47
2022-09-12T00:06:23.117Z,11.50
2022-09-12T00:09:02.028Z,11.55
2022-09-12T00:11:29.528Z,11.53
2022-09-12T00:13:59.358Z,11.53
2022-09-12T00:16:28.312Z,11.54
2022-09-12T00:18:55.395Z,11.58
2022-09-12T00:21:23.624Z,11.61
2022-09-12T00:23:51.138Z,11.64
2022-09-12T00:26:21.424Z,11.60
2022-09-12T00:28:49.109Z,11.55
2022-09-12T00:31:21.612Z,11.52
2022-09-12T00:33:48.618Z,11.55
2022-09-12T00:36:19.473Z,11.57
2022-09-12T00:38:50.181Z,11.58
2022-09-12T00:41:32.534Z,11.59
2022-09-12T00:44:20.687Z,11.58
2022-09-12T00:47:00.943Z,11.55
2022-09-12T00:49:30.527Z,11.47
2022-09-12T00:52:13.948Z,11.49
2022-09-12T00:55:01.654Z,11.50
2022-09-12T00:57:34.457Z,11.49
2022-09-12T01:00:22.161Z,11.42
2022-09-12T01:02:58.643Z,11.38
2022-09-12T01:05:28.704Z,11.37
2022-09-12T01:07:57.170Z,11.38
2022-09-12T01:10:24.846Z,11.37
2022-09-12T01:12:52.129Z,11.41
2022-09-12T01:15:19.270Z,11.36
2022-09-12T01:18:26.827Z,11.35
2022-09-12T01:21:01.184Z,11.29
2022-09-12T01:23:58.968Z,11.24
2022-09-12T01:26:31.607Z,11.21
2022-09-12T01:29:23.250Z,11.21
2022-09-12T01:32:05.765Z,11.25
2022-09-12T01:34:35.639Z,11.25
2022-09-12T01:37:25.210Z,11.27
2022-09-12T01:40:04.368Z,11.23
2022-09-12T01:42:31.144Z,11.22
2022-09-12T01:45:16.281Z,11.26
2022-09-12T01:48:27.457Z,11.24
2022-09-12T01:51:02.660Z,11.17
2022-09-12T01:54:04.014Z,11.20
2022-09-12T01:56:36.030Z,11.22
2022-09-12T01:59:09.214Z,11.22
2022-09-12T02:01:46.856Z,11.24
2022-09-12T02:04:21.160Z,11.28
2022-09-12T02:07:31.730Z,11.28
2022-09-12T02:10:16.800Z,11.27
2022-09-12T02:12:57.821Z,11.28
2022-09-12T02:15:32.842Z,11.27
2022-09-12T02:18:02.576Z,11.26
2022-09-12T02:20:47.963Z,11.20
2022-09-12T02:23:24.768Z,11.19
2022-09-12T02:25:56.447Z,11.18
2022-09-12T02:28:38.668Z,11.15
2022-09-12T02:31:13.995Z,11.06
2022-09-12T02:34:03.630Z,10.97
2022-09-12T02:36:52.105Z,10.90
2022-09-12T02:39:21.275Z,10.89
2022-09-12T02:41:51.870Z,10.90
2022-09-12T02:44:19.884Z,10.89
2022-09-12T02:46:55.303Z,10.87
2022-09-12T02:49:22.620Z,10.85
2022-09-12T02:51:52.184Z,10.87
2022-09-12T02:54:21.364Z,10.84
2022-09-12T02:56:48.378Z,10.88
2022-09-12T02:59:19.690Z,10.88
2022-09-12T03:02:17.364Z,10.91
2022-09-12T03:05:08.290Z,10.89
2022-09-12T03:07:44.196Z,10.87
2022-09-12T03:10:36.755Z,10.89
2022-09-12T03:13:15.871Z,10.87
2022-09-12T03:16:10.749Z,10.87
2022-09-12T03:19:02.167Z,10.81
2022-09-12T03:21:40.262Z,10.79
2022-09-12T03:24:19.490Z,10.74
2022-09-12T03:26:46.228Z,10.74
2022-09-12T03:29:15.145Z,10.78
2022-09-12T03:31:50.527Z,10.78
2022-09-12T03:34:17.927Z,10.69
2022-09-12T03:36:44.757Z,10.65
2022-09-12T03:39:11.641Z,10.69
2022-09-12T03:41:38.388Z,10.75
2022-09-12T03:44:05.158Z,10.76
2022-09-12T03:46:32.636Z,10.76
2022-09-12T03:48:59.381Z,10.68
2022-09-12T03:51:26.204Z,10.60
2022-09-12T03:53:53.053Z,10.64
2022-09-12T03:56:20.952Z,10.61
2022-09-12T03:58:47.961Z,10.64
2022-09-12T04:01:18.028Z,10.61
2022-09-12T04:03:49.548Z,10.51
2022-09-12T04:06:20.376Z,10.45
2022-09-12T04:08:52.223Z,10.41
2022-09-12T04:11:21.097Z,10.44
2022-09-12T04:13:48.374Z,10.46
2022-09-12T04:16:20.591Z,10.47
2022-09-12T04:18:47.848Z,10.46
2022-09-12T04:21:20.327Z,10.50
2022-09-12T04:23:47.295Z,10.50
2022-09-12T04:26:18.037Z,10.52
2022-09-12T04:28:46.590Z,10.48
2022-09-12T04:31:17.892Z,10.49
2022-09-12T04:33:45.471Z,10.50
2022-09-12T04:36:16.893Z,10.51
2022-09-12T04:38:45.786Z,10.50
2022-09-12T04:41:12.621Z,10.54
2022-09-12T04:43:40.171Z,10.59
2022-09-12T04:46:12.333Z,10.60
2022-09-12T04:48:39.367Z,10.62
2022-09-12T04:51:14.152Z,10.64
2022-09-12T04:53:42.397Z,10.64
2022-09-12T04:56:11.665Z,10.64
2022-09-12T04:58:38.811Z,10.68
2022-09-12T05:01:06.327Z,10.65
2022-09-12T05:03:34.227Z,10.68
2022-09-12T05:06:05.714Z,10.72
2022-09-12T05:08:34.330Z,10.74
2022-09-12T05:11:07.011Z,10.80
2022-09-12T05:13:34.498Z,10.91
2022-09-12T05:16:04.411Z,10.91
2022-09-12T05:18:33.302Z,10.88
2022-09-12T05:21:01.196Z,10.90
2022-09-12T05:23:28.719Z,10.95
2022-09-12T05:25:57.891Z,11.04
2022-09-12T05:28:29.326Z,11.03
2022-09-12T05:31:24.008Z,11.00
2022-09-12T05:33:52.622Z,10.99
2022-09-12T05:36:22.579Z,10.99
2022-09-12T05:38:49.789Z,11.00
2022-09-12T05:41:22.970Z,11.11
2022-09-12T05:43:53.622Z,11.09
2022-09-12T05:46:23.162Z,11.06
2022-09-12T05:48:55.648Z,11.03
2022-09-12T05:51:26.618Z,11.06
2022-09-12T05:53:56.873Z,11.09
2022-09-12T05:56:25.326Z,11.10
2022-09-12T05:59:00.571Z,11.30
2022-09-12T06:01:28.677Z,11.46
2022-09-12T06:03:58.187Z,11.57
2022-09-12T06:06:25.637Z,11.59
2022-09-12T06:08:54.211Z,11.67
2022-09-12T06:11:24.894Z,11.80
2022-09-12T06:13:52.589Z,11.93
2022-09-12T06:16:24.779Z,11.93
2022-09-12T06:18:56.472Z,11.97
2022-09-12T06:21:24.750Z,12.05
2022-09-12T06:23:51.745Z,12.16
2022-09-12T06:26:21.703Z,12.40
2022-09-12T06:28:48.956Z,12.58
2022-09-12T06:31:29.007Z,12.63
2022-09-12T06:33:56.815Z,12.57
2022-09-12T06:36:26.823Z,12.62
2022-09-12T06:39:04.818Z,12.57
2022-09-12T06:41:32.861Z,12.39
2022-09-12T06:44:00.996Z,12.44
2022-09-12T06:46:28.710Z,12.37
2022-09-12T06:49:01.374Z,12.58
2022-09-12T06:51:29.328Z,12.71
2022-09-12T06:53:57.691Z,12.67
2022-09-12T06:56:27.049Z,12.61
2022-09-12T06:58:56.822Z,12.57
2022-09-12T07:01:26.903Z,12.70
2022-09-12T07:03:58.464Z,12.70
2022-09-12T07:06:31.981Z,12.74
2022-09-12T07:09:00.066Z,12.79
2022-09-12T07:11:31.998Z,12.91
2022-09-12T07:14:00.680Z,12.96
2022-09-12T07:16:28.183Z,13.08
2022-09-12T07:18:57.679Z,13.06
2022-09-12T07:21:24.744Z,12.91
2022-09-12T07:23:58.237Z,12.80
2022-09-12T07:26:29.720Z,12.86
2022-09-12T07:29:12.818Z,12.83
2022-09-12T07:31:45.998Z,12.71
2022-09-12T07:34:14.036Z,12.67
2022-09-12T07:36:40.814Z,12.65
2022-09-12T07:39:07.645Z,12.77
2022-09-12T07:41:34.737Z,12.82
2022-09-12T07:44:02.958Z,12.82
2022-09-12T07:46:31.529Z,12.74
2022-09-12T07:49:00.593Z,12.73
2022-09-12T07:51:29.692Z,12.67
2022-09-12T07:53:56.767Z,12.58
2022-09-12T07:56:29.357Z,12.62
2022-09-12T07:58:56.991Z,12.52
2022-09-12T08:01:24.123Z,12.47
2022-09-12T08:03:57.235Z,12.55
2022-09-12T08:06:25.363Z,12.59
2022-09-12T08:08:59.468Z,12.61
2022-09-12T08:11:28.384Z,12.60
2022-09-12T08:13:57.852Z,12.69
2022-09-12T08:16:30.314Z,12.71
2022-09-12T08:18:57.537Z,12.72
2022-09-12T08:21:32.358Z,12.73
2022-09-12T08:24:04.803Z,12.81
2022-09-12T08:26:33.472Z,12.80
2022-09-12T08:29:01.166Z,12.98
2022-09-12T08:31:28.582Z,13.02
2022-09-12T08:33:57.381Z,13.02
2022-09-12T08:36:27.474Z,12.90
2022-09-12T08:38:59.590Z,12.94
2022-09-12T08:41:35.040Z,13.04
2022-09-12T08:44:14.468Z,13.05
2022-09-12T08:47:06.303Z,13.11
2022-09-12T08:49:41.170Z,13.37
2022-09-12T08:52:32.984Z,13.66
2022-09-12T08:55:01.891Z,13.86
2022-09-12T08:57:29.999Z,14.34
2022-09-12T08:59:57.214Z,14.55
2022-09-12T09:02:38.566Z,14.53
2022-09-12T09:05:16.453Z,14.45
2022-09-12T09:08:13.756Z,14.29
2022-09-12T09:10:53.736Z,14.36
2022-09-12T09:14:10.789Z,14.37
2022-09-12T09:16:44.204Z,14.43
2022-09-12T09:19:17.720Z,14.36
2022-09-12T09:21:51.659Z,14.30
2022-09-12T09:24:22.269Z,14.45
2022-09-12T09:26:58.380Z,14.48
2022-09-12T09:29:30.728Z,14.55
2022-09-12T09:32:03.494Z,14.77
2022-09-12T09:34:34.556Z,14.76
2022-09-12T09:37:34.407Z,14.86
2022-09-12T09:40:03.933Z,14.64
2022-09-12T09:42:36.705Z,14.57
2022-09-12T09:45:14.857Z,14.84
2022-09-12T09:47:42.203Z,14.75
2022-09-12T09:50:16.725Z,14.73
2022-09-12T09:52:44.256Z,14.76
2022-09-12T09:55:17.875Z,15.06
2022-09-12T09:57:46.819Z,15.24
2022-09-12T10:00:27.201Z,15.40
2022-09-12T10:03:13.531Z,15.52
2022-09-12T10:05:53.016Z,15.44
2022-09-12T10:08:35.398Z,15.42
2022-09-12T10:11:23.313Z,15.35
2022-09-12T10:13:56.984Z,15.32
2022-09-12T10:16:35.591Z,15.50
2022-09-12T10:19:04.226Z,15.39
2022-09-12T10:21:41.277Z,15.43
2022-09-12T10:24:36.662Z,15.44
2022-09-12T10:27:20.853Z,15.36
2022-09-12T10:29:54.663Z,15.39
2022-09-12T10:32:30.649Z,15.25
2022-09-12T10:35:01.777Z,15.24
2022-09-12T10:37:39.715Z,15.00
2022-09-12T10:40:20.633Z,14.93
2022-09-12T10:42:53.511Z,14.91
2022-09-12T10:45:25.039Z,14.92
2022-09-12T10:47:54.229Z,14.92
2022-09-12T10:50:22.985Z,14.84
2022-09-12T10:52:50.087Z,14.73
2022-09-12T10:55:17.143Z,14.61
2022-09-12T10:58:01.327Z,14.63
2022-09-12T11:00:30.586Z,14.63
2022-09-12T11:03:34.717Z,14.70
2022-09-12T11:06:05.251Z,14.84
2022-09-12T11:08:55.723Z,14.93
2022-09-12T11:11:37.552Z,14.91
2022-09-12T11:14:04.242Z,14.90
2022-09-12T11:16:54.836Z,14.95
2022-09-12T11:19:33.986Z,15.00
2022-09-12T11:22:19.377Z,15.14
2022-09-12T11:25:09.383Z,15.13
2022-09-12T11:28:06.169Z,15.01
2022-09-12T11:31:02.159Z,14.95
2022-09-12T11:34:02.189Z,15.23
2022-09-12T11:36:47.385Z,15.59
2022-09-12T11:39:23.593Z,15.89
2022-09-12T11:41:57.671Z,15.96
2022-09-12T11:44:40.333Z,15.99
2022-09-12T11:47:14.721Z,15.97
2022-09-12T11:49:47.256Z,15.84
2022-09-12T11:52:23.994Z,15.53
2022-09-12T11:55:17.206Z,15.38
2022-09-12T11:57:48.213Z,15.12
2022-09-12T12:00:26.823Z,14.95
2022-09-12T12:03:24.244Z,14.72
2022-09-12T12:05:57.767Z,14.56
2022-09-12T12:08:27.731Z,14.49
2022-09-12T12:10:57.075Z,14.41
2022-09-12T12:13:29.930Z,14.47
2022-09-12T12:16:13.850Z,14.43
2022-09-12T12:18:43.325Z,14.40
2022-09-12T12:21:31.491Z,14.48
2022-09-12T12:24:14.312Z,14.47
2022-09-12T12:26:40.998Z,14.47
2022-09-12T12:29:17.578Z,14.60
2022-09-12T12:31:59.655Z,14.56
2022-09-12T12:34:46.681Z,14.38
2022-09-12T12:37:19.792Z,14.30
2022-09-12T12:40:01.111Z,14.30
2022-09-12T12:42:30.891Z,14.32
2022-09-12T12:44:58.556Z,14.39
2022-09-12T12:47:50.389Z,14.47
2022-09-12T12:50:17.094Z,14.64
2022-09-12T12:52:49.953Z,14.84
2022-09-12T12:55:34.261Z,14.94
2022-09-12T12:58:06.197Z,15.02
2022-09-12T13:00:37.051Z,15.04
2022-09-12T13:03:07.102Z,14.89
2022-09-12T13:05:47.623Z,14.65
2022-09-12T13:08:17.356Z,14.59
2022-09-12T13:11:08.804Z,14.59
2022-09-12T13:13:52.527Z,14.57
2022-09-12T13:16:39.972Z,14.50
2022-09-12T13:19:17.939Z,14.36
2022-09-12T13:22:10.704Z,14.27
2022-09-12T13:24:53.017Z,14.14
2022-09-12T13:27:25.709Z,14.03
2022-09-12T13:30:29.406Z,13.94
2022-09-12T13:32:59.321Z,13.89
2022-09-12T13:35:52.287Z,13.91
2022-09-12T13:39:03.688Z,14.00
2022-09-12T13:41:51.900Z,14.04
2022-09-12T13:44:21.989Z,14.08
2022-09-12T13:46:49.118Z,14.07
2022-09-12T13:52:21.479Z,13.99
2022-09-12T13:54:51.468Z,13.95
2022-09-12T13:57:28.680Z,13.91
2022-09-12T13:59:58.051Z,13.77
2022-09-12T14:02:28.917Z,13.64
2022-09-12T14:05:11.529Z,13.63
2022-09-12T14:08:15.398Z,13.59
2022-09-12T14:10:45.419Z,13.58
2022-09-12T14:13:22.804Z,13.52
2022-09-12T14:15:58.788Z,13.53
2022-09-12T14:18:29.057Z,13.50
2022-09-12T14:21:01.058Z,13.54
2022-09-12T14:23:33.138Z,13.62
2022-09-12T14:26:06.660Z,13.59
2022-09-12T14:28:34.666Z,13.58
2022-09-12T14:31:26.905Z,13.57
2022-09-12T14:34:09.712Z,13.63
2022-09-12T14:36:36.562Z,13.61
2022-09-12T14:39:07.586Z,13.67
2022-09-12T14:41:41.141Z,13.69
2022-09-12T14:44:15.549Z,13.65
2022-09-12T14:46:43.743Z,13.67
2022-09-12T14:49:21.254Z,13.61
2022-09-12T14:51:51.415Z,13.57
2022-09-12T14:54:37.860Z,13.47
2022-09-12T14:57:33.486Z,13.38
2022-09-12T15:00:30.209Z,13.26
2022-09-12T15:03:30.844Z,13.19
2022-09-12T15:05:58.796Z,13.13
2022-09-12T15:08:26.936Z,13.12
2022-09-12T15:10:54.036Z,13.09
2022-09-12T15:13:23.861Z,13.03
2022-09-12T15:15:56.560Z,13.01
2022-09-12T15:18:26.118Z,12.99
2022-09-12T15:20:58.050Z,12.96
2022-09-12T15:23:29.537Z,12.98
2022-09-12T15:25:56.337Z,12.94
2022-09-12T15:28:25.053Z,12.93
2022-09-12T15:30:56.853Z,12.89
2022-09-12T15:33:25.143Z,12.89
2022-09-12T15:35:53.480Z,12.90
2022-09-12T15:38:24.435Z,12.89
2022-09-12T15:40:54.123Z,12.86
2022-09-12T15:43:22.598Z,12.86
2022-09-12T15:45:51.770Z,12.84
2022-09-12T15:48:20.801Z,12.82
2022-09-12T15:50:47.879Z,12.83
2022-09-12T15:53:16.970Z,12.84
2022-09-12T15:55:43.799Z,12.85
2022-09-12T15:58:10.814Z,12.83
2022-09-12T16:00:37.852Z,12.80
2022-09-12T16:03:05.155Z,12.78
2022-09-12T16:05:32.440Z,12.75
2022-09-12T16:07:59.695Z,12.69
2022-09-12T16:10:30.114Z,12.65
2022-09-12T16:12:57.991Z,12.60
2022-09-12T16:15:25.756Z,12.58
2022-09-12T16:17:53.168Z,12.55
2022-09-12T16:20:21.057Z,12.51
2022-09-12T16:22:48.682Z,12.48
2022-09-12T16:25:15.582Z,12.48
2022-09-12T16:27:43.126Z,12.44
2022-09-12T16:30:10.758Z,12.44
2022-09-12T16:32:37.673Z,12.43
2022-09-12T16:35:05.355Z,12.40
2022-09-12T16:37:34.689Z,12.36
2022-09-12T16:40:02.934Z,12.32
2022-09-12T16:42:30.910Z,12.28
2022-09-12T16:44:57.891Z,12.24
2022-09-12T16:47:24.847Z,12.22
2022-09-12T16:49:51.609Z,12.22
2022-09-12T16:52:19.431Z,12.19
2022-09-12T16:54:46.243Z,12.17
2022-09-12T16:57:13.148Z,12.18
2022-09-12T16:59:40.041Z,12.21
2022-09-12T17:02:07.678Z,12.26
2022-09-12T17:04:34.708Z,12.30
2022-09-12T17:07:03.739Z,12.29
2022-09-12T17:09:30.750Z,12.33
2022-09-12T17:11:57.671Z,12.33
2022-09-12T17:14:25.801Z,12.34
2022-09-12T17:16:52.915Z,12.36
2022-09-12T17:19:32.465Z,12.37
2022-09-12T17:21:59.545Z,12.37
2022-09-12T17:24:26.952Z,12.36
2022-09-12T17:26:53.886Z,12.36
2022-09-12T17:29:21.123Z,12.39
2022-09-12T17:31:48.207Z,12.39
2022-09-12T17:34:16.352Z,12.40
2022-09-12T17:36:48.591Z,12.35
2022-09-12T17:39:15.639Z,12.36
2022-09-12T17:41:46.264Z,12.40
2022-09-12T17:44:15.191Z,12.40
2022-09-12T17:46:43.571Z,12.43
2022-09-12T17:49:15.698Z,12.44
2022-09-12T17:51:43.968Z,12.46
2022-09-12T17:54:14.199Z,12.48
2022-09-12T17:56:41.015Z,12.44
2022-09-12T17:59:10.891Z,12.48
2022-09-12T18:01:56.287Z,12.46
2022-09-12T18:04:23.364Z,12.45
2022-09-12T18:06:50.284Z,12.41
2022-09-12T18:09:20.745Z,12.43
2022-09-12T18:11:48.975Z,12.43
2022-09-12T18:14:17.303Z,12.43
2022-09-12T18:16:45.672Z,12.44
2022-09-12T18:19:12.922Z,12.41
2022-09-12T18:21:40.939Z,12.39
2022-09-12T18:24:11.765Z,12.37
2022-09-12T18:26:38.745Z,12.35
2022-09-12T18:29:05.728Z,12.35
2022-09-12T18:31:32.725Z,12.35
2022-09-12T18:34:00.616Z,12.30
2022-09-12T18:36:27.686Z,12.30
2022-09-12T18:38:55.272Z,12.33
2022-09-12T18:41:24.083Z,12.33
2022-09-12T18:43:58.417Z,12.32
2022-09-12T18:46:26.893Z,12.29
2022-09-12T18:48:57.825Z,12.29
2022-09-12T18:51:27.589Z,12.26
2022-09-12T18:53:57.031Z,12.26
2022-09-12T18:56:26.872Z,12.22
2022-09-12T18:58:55.987Z,12.20
2022-09-12T19:01:25.367Z,12.19
2022-09-12T19:03:53.981Z,12.21
2022-09-12T19:06:27.971Z,12.22
2022-09-12T19:08:56.502Z,12.20
2022-09-12T19:11:24.616Z,12.20
2022-09-12T19:13:53.224Z,12.22
2022-09-12T19:16:23.403Z,12.19
2022-09-12T19:18:50.880Z,12.12
2022-09-12T19:21:20.158Z,12.13
2022-09-12T19:23:47.107Z,12.13
2022-09-12T19:26:16.054Z,12.15
2022-09-12T19:28:43.752Z,12.12
2022-09-12T19:31:12.995Z,12.15
2022-09-12T19:33:49.798Z,12.16
2022-09-12T19:36:41.265Z,12.16
2022-09-12T19:39:07.448Z,12.16
2022-09-12T19:41:35.050Z,12.14
2022-09-12T19:44:02.292Z,12.09
2022-09-12T19:46:29.220Z,12.10
2022-09-12T19:48:56.118Z,12.05
2022-09-12T19:51:24.329Z,12.03
2022-09-12T19:53:51.544Z,12.04
2022-09-12T19:56:18.631Z,12.03
2022-09-12T19:58:50.860Z,12.04
2022-09-12T20:01:21.393Z,12.06
2022-09-12T20:03:49.313Z,12.04
2022-09-12T20:06:17.763Z,12.09
2022-09-12T20:08:45.000Z,12.09
2022-09-12T20:11:17.776Z,12.10
2022-09-12T20:13:45.577Z,12.07
2022-09-12T20:16:21.798Z,12.05
2022-09-12T20:18:53.653Z,12.07
2022-09-12T20:21:27.526Z,12.06
2022-09-12T20:23:54.340Z,12.05
2022-09-12T20:26:23.474Z,12.06
2022-09-12T20:28:51.257Z,12.06
2022-09-12T20:31:18.268Z,12.07
2022-09-12T20:33:48.593Z,12.12
2022-09-12T20:36:19.874Z,12.14
2022-09-12T20:38:51.721Z,12.14
2022-09-12T20:41:22.662Z,12.15
2022-09-12T20:43:51.429Z,12.13
2022-09-12T20:46:21.924Z,12.11
2022-09-12T20:48:50.470Z,12.12
2022-09-12T20:51:17.859Z,12.15
2022-09-12T20:53:44.752Z,12.11
2022-09-12T20:56:11.786Z,12.06
2022-09-12T20:58:43.573Z,12.04
2022-09-12T21:01:12.490Z,12.04
2022-09-12T21:03:43.329Z,12.06
2022-09-12T21:06:12.851Z,12.03
2022-09-12T21:08:40.050Z,11.94
2022-09-12T21:11:07.377Z,11.94
2022-09-12T21:13:34.725Z,11.97
2022-09-12T21:16:04.171Z,11.98
2022-09-12T21:18:32.034Z,11.98
2022-09-12T21:20:59.067Z,11.98
2022-09-12T21:23:27.360Z,11.99
2022-09-12T21:25:54.696Z,12.02
2022-09-12T21:28:21.776Z,12.00
2022-09-12T21:30:49.941Z,12.00
2022-09-12T21:33:18.412Z,12.00
2022-09-12T21:35:45.932Z,12.05
2022-09-12T21:38:13.335Z,12.03
2022-09-12T21:40:40.279Z,12.03
2022-09-12T21:43:12.317Z,12.02
2022-09-12T21:45:42.286Z,12.00
2022-09-12T21:48:09.129Z,11.97
2022-09-12T21:50:36.042Z,11.98
2022-09-12T21:53:03.247Z,12.03
2022-09-12T21:55:30.014Z,12.04
2022-09-12T21:57:57.116Z,12.00
2022-09-12T22:00:24.419Z,11.97
2022-09-12T22:02:51.361Z,11.96
2022-09-12T22:05:24.726Z,11.94
2022-09-12T22:07:51.865Z,11.92
2022-09-12T22:10:18.768Z,11.89
2022-09-12T22:12:46.524Z,11.86
2022-09-12T22:15:38.986Z,11.84
2022-09-12T22:18:01.191Z,11.83
2022-09-12T22:20:28.247Z,11.79
2022-09-12T22:23:13.384Z,11.79
2022-09-12T22:25:40.465Z,11.78
2022-09-12T22:28:07.450Z,11.77
2022-09-12T22:30:34.323Z,11.74
2022-09-12T22:33:01.559Z,11.70
2022-09-12T22:35:28.501Z,11.69
2022-09-12T22:37:55.205Z,11.64
2022-09-12T22:40:22.024Z,11.61
2022-09-12T22:42:52.454Z,11.59
2022-09-12T22:45:20.053Z,11.54
2022-09-12T22:47:48.251Z,11.51
2022-09-12T22:50:17.282Z,11.52
2022-09-12T22:52:44.486Z,11.50
2022-09-12T22:55:11.731Z,11.51
2022-09-12T22:57:38.558Z,11.55
2022-09-12T23:00:08.723Z,11.60
2022-09-12T23:02:38.330Z,11.55
2022-09-12T23:05:06.233Z,11.52
2022-09-12T23:07:33.758Z,11.53
2022-09-12T23:10:01.206Z,11.55
2022-09-12T23:12:28.138Z,11.55
2022-09-12T23:14:54.919Z,11.53
2022-09-12T23:17:21.957Z,11.53
2022-09-12T23:19:48.862Z,11.54
2022-09-12T23:22:15.828Z,11.54
2022-09-12T23:24:42.672Z,11.54
2022-09-12T23:27:09.498Z,11.54
2022-09-12T23:29:36.394Z,11.53
2022-09-12T23:32:06.958Z,11.51
2022-09-12T23:34:34.166Z,11.53
2022-09-12T23:37:01.006Z,11.53
2022-09-12T23:39:27.891Z,11.52
2022-09-12T23:41:55.077Z,11.48
2022-09-12T23:44:21.854Z,11.44
2022-09-12T23:46:48.760Z,11.46
2022-09-12T23:49:15.621Z,11.44
2022-09-12T23:51:42.458Z,11.46
2022-09-12T23:54:09.292Z,11.45
2022-09-12T23:56:36.077Z,11.42
2022-09-12T23:59:02.978Z,11.41
